Time;durP1;ratioP1;P1;durP2;ratioP2;P2;SDS_P1;SDS_P2;PMS_P1;PMS_P2;Temp;Humidity;BMP_temperature;BMP_pressure;BME280_temperature;BME280_humidity;BME280_pressure;Samples;Min_cycle;Max_cycle;Signal;HPM_P1;HPM_P2
2021/07/05 00:01:45;;;;;;;18.88;10.27;;;;;;;;;;5026187;28;20029;-44
2021/07/05 00:04:11;;;;;;;21.73;12.02;;;;;;;;;;5025964;28;20119;-43
2021/07/05 00:06:38;;;;;;;9.50;6.88;;;;;;;;;;5026119;28;20029;-42
2021/07/05 00:09:05;;;;;;;10.45;6.35;;;;;;;;;;5026254;28;20825;-42
2021/07/05 00:11:31;;;;;;;13.50;5.22;;;;;;;;;;5026196;28;20555;-44
2021/07/05 00:13:57;;;;;;;10.15;6.03;;;;;;;;;;5025813;28;20068;-45
2021/07/05 00:16:24;;;;;;;26.90;15.32;;;;;;;;;;5025892;28;20038;-41
2021/07/05 00:18:50;;;;;;;14.15;8.60;;;;;;;;;;5041074;28;20814;-41
2021/07/05 00:21:16;;;;;;;14.02;7.75;;;;;;;;;;5025940;28;20144;-42
2021/07/05 00:23:44;;;;;;;14.63;8.82;;;;;;;;;;5041056;28;20032;-41
2021/07/05 00:26:10;;;;;;;42.55;24.88;;;;;;;;;;5025714;28;20029;-42
2021/07/05 00:28:37;;;;;;;39.13;23.55;;;;;;;;;;5025866;28;20388;-42
2021/07/05 00:31:04;;;;;;;30.02;14.90;;;;;;;;;;5025687;28;20146;-41
2021/07/05 00:33:30;;;;;;;9.02;5.03;;;;;;;;;;5025718;28;20469;-42
2021/07/05 00:35:59;;;;;;;9.02;4.32;;;;;;;;;;5026459;28;20323;-42
2021/07/05 00:38:25;;;;;;;11.40;4.75;;;;;;;;;;5029701;28;20182;-42
2021/07/05 00:40:51;;;;;;;6.30;4.70;;;;;;;;;;5029364;28;20024;-42
2021/07/05 00:43:17;;;;;;;8.50;5.22;;;;;;;;;;5029413;28;20021;-41
2021/07/05 00:45:43;;;;;;;10.07;4.72;;;;;;;;;;5029610;28;20025;-42
2021/07/05 00:48:09;;;;;;;6.85;4.53;;;;;;;;;;5029445;28;20115;-41
2021/07/05 00:50:36;;;;;;;6.88;4.68;;;;;;;;;;5064804;28;20480;-41
2021/07/05 00:53:03;;;;;;;13.55;4.68;;;;;;;;;;5076532;28;20029;-41
2021/07/05 00:55:32;;;;;;;7.40;5.25;;;;;;;;;;5076500;28;20048;-41
2021/07/05 00:57:58;;;;;;;7.57;4.13;;;;;;;;;;5076345;28;20033;-41
2021/07/05 01:00:25;;;;;;;9.55;4.63;;;;;;;;;;5076606;28;20027;-42
2021/07/05 01:02:51;;;;;;;7.78;4.40;;;;;;;;;;5076631;28;20033;-43
2021/07/05 01:05:18;;;;;;;11.25;4.68;;;;;;;;;;5076533;28;20073;-42
2021/07/05 01:07:45;;;;;;;8.20;4.30;;;;;;;;;;5076487;28;20445;-42
2021/07/05 01:10:12;;;;;;;8.43;4.43;;;;;;;;;;5076429;28;20136;-41
2021/07/05 01:12:38;;;;;;;7.35;4.40;;;;;;;;;;5076199;28;20028;-41
2021/07/05 01:15:06;;;;;;;5.70;4.43;;;;;;;;;;5076131;28;20044;-42
2021/07/05 01:17:32;;;;;;;9.75;3.97;;;;;;;;;;5076035;28;20039;-43
2021/07/05 01:19:58;;;;;;;6.45;4.80;;;;;;;;;;5076066;28;20389;-42
2021/07/05 01:22:24;;;;;;;8.95;4.32;;;;;;;;;;5076135;28;20072;-42
2021/07/05 01:24:50;;;;;;;9.98;4.70;;;;;;;;;;5076093;28;20016;-43
2021/07/05 01:27:17;;;;;;;13.98;5.57;;;;;;;;;;5075993;28;20035;-44
2021/07/05 01:29:43;;;;;;;6.07;4.47;;;;;;;;;;5075937;28;20017;-44
2021/07/05 01:32:09;;;;;;;10.43;4.97;;;;;;;;;;5076084;28;20055;-43
2021/07/05 01:34:36;;;;;;;7.72;4.88;;;;;;;;;;5075818;28;20027;-43
2021/07/05 01:37:03;;;;;;;12.52;5.00;;;;;;;;;;5075874;28;20032;-44
2021/07/05 01:39:29;;;;;;;6.20;4.32;;;;;;;;;;5075791;28;20024;-43
2021/07/05 01:41:55;;;;;;;7.15;4.93;;;;;;;;;;5075703;28;20527;-44
2021/07/05 01:44:21;;;;;;;9.32;4.68;;;;;;;;;;5075693;28;20035;-44
2021/07/05 01:46:47;;;;;;;8.02;4.75;;;;;;;;;;5075419;28;20029;-44
2021/07/05 01:49:14;;;;;;;6.35;4.35;;;;;;;;;;5075724;28;20028;-44
2021/07/05 01:51:40;;;;;;;11.88;4.88;;;;;;;;;;5075494;28;20021;-44
2021/07/05 01:54:07;;;;;;;5.97;4.65;;;;;;;;;;5075881;28;20024;-44
2021/07/05 01:56:33;;;;;;;9.15;4.80;;;;;;;;;;5075597;28;20112;-44
2021/07/05 01:58:59;;;;;;;7.57;4.95;;;;;;;;;;5075520;28;20039;-44
2021/07/05 02:01:26;;;;;;;6.22;4.68;;;;;;;;;;5075426;28;20017;-44
2021/07/05 02:03:52;;;;;;;6.15;4.47;;;;;;;;;;5075175;28;20035;-44
2021/07/05 02:06:18;;;;;;;6.72;4.60;;;;;;;;;;5075475;28;20025;-44
2021/07/05 02:08:44;;;;;;;7.28;5.03;;;;;;;;;;5075446;28;20024;-44
2021/07/05 02:11:10;;;;;;;11.63;5.10;;;;;;;;;;5075311;28;20040;-44
2021/07/05 02:13:37;;;;;;;6.05;4.88;;;;;;;;;;5075187;28;20107;-44
2021/07/05 02:16:03;;;;;;;9.38;5.60;;;;;;;;;;5075273;28;20037;-44
2021/07/05 02:18:30;;;;;;;9.88;4.97;;;;;;;;;;5075019;28;20064;-44
2021/07/05 02:20:57;;;;;;;7.10;5.00;;;;;;;;;;5075192;28;20021;-44
2021/07/05 02:23:24;;;;;;;8.23;5.30;;;;;;;;;;5075176;28;20477;-44
2021/07/05 02:25:50;;;;;;;6.18;4.80;;;;;;;;;;5074943;28;20106;-43
2021/07/05 02:28:26;;;;;;;7.25;4.68;;;;;;;;;;5075185;28;20020;-44
2021/07/05 02:30:53;;;;;;;6.53;5.05;;;;;;;;;;5074992;28;20025;-43
2021/07/05 02:33:21;;;;;;;12.40;5.35;;;;;;;;;;5074815;28;20440;-44
2021/07/05 02:35:47;;;;;;;8.60;5.80;;;;;;;;;;5074748;28;20020;-45
2021/07/05 02:38:14;;;;;;;7.47;5.40;;;;;;;;;;5074599;28;20028;-44
2021/07/05 02:40:42;;;;;;;11.02;5.43;;;;;;;;;;5074765;28;20127;-43
2021/07/05 02:43:08;;;;;;;8.57;6.07;;;;;;;;;;5074662;28;20033;-42
2021/07/05 02:45:35;;;;;;;7.47;5.63;;;;;;;;;;5074605;28;20451;-44
2021/07/05 02:48:03;;;;;;;9.23;6.18;;;;;;;;;;5074400;28;20026;-41
2021/07/05 02:50:31;;;;;;;6.78;5.63;;;;;;;;;;5074386;28;20370;-41
2021/07/05 02:52:58;;;;;;;9.93;5.97;;;;;;;;;;5074514;28;20028;-43
2021/07/05 02:55:24;;;;;;;7.68;5.90;;;;;;;;;;5074433;28;20027;-41
2021/07/05 02:57:50;;;;;;;8.73;6.70;;;;;;;;;;5074273;28;20455;-41
2021/07/05 03:00:18;;;;;;;9.10;5.65;;;;;;;;;;5073779;28;20016;-44
2021/07/05 03:02:45;;;;;;;8.55;5.43;;;;;;;;;;5074253;28;20052;-42
2021/07/05 03:05:12;;;;;;;9.85;6.10;;;;;;;;;;5074053;28;20020;-41
2021/07/05 03:07:38;;;;;;;9.00;5.78;;;;;;;;;;5074358;28;20031;-43
2021/07/05 03:10:05;;;;;;;11.57;5.68;;;;;;;;;;5074165;28;20024;-41
2021/07/05 03:12:31;;;;;;;11.10;5.82;;;;;;;;;;5073797;28;20032;-41
2021/07/05 03:14:58;;;;;;;8.60;5.47;;;;;;;;;;5073955;28;20079;-42
2021/07/05 03:17:24;;;;;;;8.95;6.13;;;;;;;;;;5073865;28;20036;-41
2021/07/05 03:19:50;;;;;;;9.20;6.10;;;;;;;;;;5073887;28;20518;-42
2021/07/05 03:22:17;;;;;;;12.73;6.50;;;;;;;;;;5073862;28;20055;-42
2021/07/05 03:24:44;;;;;;;7.97;6.20;;;;;;;;;;5073716;28;20028;-44
2021/07/05 03:27:10;;;;;;;10.90;6.50;;;;;;;;;;5073659;28;20032;-42
2021/07/05 03:29:37;;;;;;;12.25;6.35;;;;;;;;;;5073692;28;20016;-41
2021/07/05 03:32:04;;;;;;;9.82;6.90;;;;;;;;;;5073621;28;20537;-43
2021/07/05 03:34:30;;;;;;;9.20;6.10;;;;;;;;;;5073938;28;20040;-44
2021/07/05 03:36:56;;;;;;;9.40;6.40;;;;;;;;;;5073803;28;20028;-44
2021/07/05 03:39:22;;;;;;;10.15;6.65;;;;;;;;;;5073787;28;20513;-44
2021/07/05 03:41:48;;;;;;;9.00;6.53;;;;;;;;;;5073653;28;20028;-44
2021/07/05 03:44:14;;;;;;;10.55;7.03;;;;;;;;;;5073829;28;20404;-43
2021/07/05 03:46:41;;;;;;;11.90;6.47;;;;;;;;;;5073493;28;20465;-43
2021/07/05 03:49:07;;;;;;;12.00;6.70;;;;;;;;;;5073491;28;20472;-44
2021/07/05 03:51:33;;;;;;;9.95;6.70;;;;;;;;;;5073490;28;20054;-44
2021/07/05 03:53:59;;;;;;;10.38;5.90;;;;;;;;;;5073628;28;20816;-44
2021/07/05 03:56:25;;;;;;;9.07;5.40;;;;;;;;;;5073216;28;20077;-43
2021/07/05 03:58:51;;;;;;;11.35;6.05;;;;;;;;;;5073452;28;20490;-44
2021/07/05 04:01:20;;;;;;;11.48;6.15;;;;;;;;;;5072004;28;20039;-44
2021/07/05 04:03:46;;;;;;;16.08;6.93;;;;;;;;;;5073221;28;20585;-44
2021/07/05 04:06:13;;;;;;;22.67;6.22;;;;;;;;;;5073193;28;20379;-44
2021/07/05 04:08:39;;;;;;;11.07;7.25;;;;;;;;;;5073419;28;20103;-44
2021/07/05 04:11:05;;;;;;;9.05;7.03;;;;;;;;;;5072976;28;20108;-43
2021/07/05 04:13:31;;;;;;;12.35;6.63;;;;;;;;;;5072944;28;20444;-44
2021/07/05 04:15:57;;;;;;;13.27;7.03;;;;;;;;;;5073364;28;20024;-44
2021/07/05 04:18:24;;;;;;;10.98;6.68;;;;;;;;;;5073052;28;20040;-45
2021/07/05 04:20:50;;;;;;;10.73;6.60;;;;;;;;;;5073130;28;20028;-45
2021/07/05 04:23:16;;;;;;;10.93;6.97;;;;;;;;;;5073291;28;20028;-42
2021/07/05 04:25:43;;;;;;;81.63;43.03;;;;;;;;;;5073155;28;20093;-44
2021/07/05 04:28:09;;;;;;;32.97;18.98;;;;;;;;;;5073090;28;20020;-43
2021/07/05 04:30:36;;;;;;;18.08;10.55;;;;;;;;;;5073296;28;20035;-41
2021/07/05 04:33:03;;;;;;;16.63;9.15;;;;;;;;;;5073277;28;20020;-43
2021/07/05 04:35:29;;;;;;;13.52;7.63;;;;;;;;;;5073068;28;20121;-41
2021/07/05 04:37:55;;;;;;;12.35;7.72;;;;;;;;;;5072949;28;20037;-41
2021/07/05 04:40:23;;;;;;;13.05;8.35;;;;;;;;;;5072880;28;20023;-41
2021/07/05 04:42:50;;;;;;;21.50;8.95;;;;;;;;;;5072621;28;20105;-44
2021/07/05 04:45:17;;;;;;;35.92;18.88;;;;;;;;;;5073018;28;20028;-41
2021/07/05 04:47:43;;;;;;;32.97;17.75;;;;;;;;;;5072843;28;20048;-44
2021/07/05 04:50:11;;;;;;;32.45;15.27;;;;;;;;;;5072800;28;20024;-41
2021/07/05 04:52:37;;;;;;;38.10;17.65;;;;;;;;;;5073023;28;20029;-41
2021/07/05 04:55:04;;;;;;;52.85;26.88;;;;;;;;;;5072888;28;20525;-42
2021/07/05 04:57:31;;;;;;;81.97;39.65;;;;;;;;;;5072596;28;20040;-41
2021/07/05 04:59:57;;;;;;;103.57;49.65;;;;;;;;;;5073115;28;20056;-41
2021/07/05 05:02:24;;;;;;;86.85;41.75;;;;;;;;;;5072738;28;20112;-41
2021/07/05 05:04:50;;;;;;;54.70;28.15;;;;;;;;;;5072834;28;20067;-41
2021/07/05 05:07:16;;;;;;;28.90;14.50;;;;;;;;;;5072717;28;20025;-44
2021/07/05 05:09:43;;;;;;;33.00;14.48;;;;;;;;;;5072684;28;20477;-43
2021/07/05 05:12:09;;;;;;;27.17;12.77;;;;;;;;;;5072629;28;20024;-41
2021/07/05 05:14:36;;;;;;;25.08;12.23;;;;;;;;;;5072368;28;20051;-41
2021/07/05 05:17:06;;;;;;;16.75;9.48;;;;;;;;;;5072523;28;20032;-41
2021/07/05 05:19:33;;;;;;;19.38;9.93;;;;;;;;;;5072741;28;20029;-41
2021/07/05 05:21:59;;;;;;;18.75;10.20;;;;;;;;;;5073271;28;20415;-42
2021/07/05 05:24:28;;;;;;;16.70;8.73;;;;;;;;;;5076149;28;20025;-44
2021/07/05 05:26:54;;;;;;;18.63;9.18;;;;;;;;;;5076047;28;20095;-43
2021/07/05 05:29:20;;;;;;;12.88;6.80;;;;;;;;;;5076238;28;20034;-44
2021/07/05 05:31:46;;;;;;;15.98;8.13;;;;;;;;;;5076151;28;20369;-44
2021/07/05 05:34:12;;;;;;;14.57;8.48;;;;;;;;;;5075988;28;20100;-44
2021/07/05 05:36:39;;;;;;;13.02;7.38;;;;;;;;;;5075996;28;20023;-44
2021/07/05 05:39:05;;;;;;;22.75;8.07;;;;;;;;;;5075820;28;20020;-44
2021/07/05 05:41:31;;;;;;;15.70;6.60;;;;;;;;;;5075729;28;20430;-43
2021/07/05 05:44:01;;;;;;;8.73;6.28;;;;;;;;;;5075650;28;20037;-44
2021/07/05 05:46:28;;;;;;;12.45;6.00;;;;;;;;;;5075798;28;20021;-44
2021/07/05 05:48:55;;;;;;;10.60;6.93;;;;;;;;;;5075527;28;20549;-43
2021/07/05 05:51:22;;;;;;;42.80;23.60;;;;;;;;;;5075631;28;20025;-43
2021/07/05 05:53:48;;;;;;;97.15;57.17;;;;;;;;;;5075646;28;20023;-44
2021/07/05 05:56:14;;;;;;;83.68;50.80;;;;;;;;;;5075480;28;20103;-44
2021/07/05 05:58:42;;;;;;;61.15;34.10;;;;;;;;;;5075551;28;20037;-41
2021/07/05 06:01:08;;;;;;;27.15;17.40;;;;;;;;;;5075452;28;20476;-44
2021/07/05 06:03:34;;;;;;;23.70;12.60;;;;;;;;;;5075334;28;20131;-42
2021/07/05 06:06:01;;;;;;;18.40;7.63;;;;;;;;;;5075226;28;20048;-44
2021/07/05 06:08:27;;;;;;;17.35;11.32;;;;;;;;;;5075317;28;20499;-44
2021/07/05 06:10:53;;;;;;;19.15;11.13;;;;;;;;;;5075239;28;20021;-44
2021/07/05 06:13:19;;;;;;;15.60;8.73;;;;;;;;;;5075065;28;20032;-44
2021/07/05 06:15:45;;;;;;;15.25;9.40;;;;;;;;;;5075065;28;20071;-42
2021/07/05 06:18:11;;;;;;;20.00;11.75;;;;;;;;;;5074942;28;20465;-41
2021/07/05 06:20:37;;;;;;;23.58;14.60;;;;;;;;;;5055679;28;20028;-42
2021/07/05 06:23:07;;;;;;;29.48;19.27;;;;;;;;;;5053609;28;20021;-41
2021/07/05 06:25:33;;;;;;;30.98;17.73;;;;;;;;;;5053458;28;20033;-43
2021/07/05 06:27:59;;;;;;;19.42;13.30;;;;;;;;;;5053513;28;20063;-41
2021/07/05 06:30:25;;;;;;;161.93;117.65;;;;;;;;;;5053392;28;20025;-39
2021/07/05 06:32:52;;;;;;;52.20;38.53;;;;;;;;;;5052715;28;20036;-40
2021/07/05 06:35:18;;;;;;;213.70;147.68;;;;;;;;;;5052517;28;20070;-40
2021/07/05 06:37:44;;;;;;;52.53;32.60;;;;;;;;;;5053038;28;20083;-42
2021/07/05 06:40:10;;;;;;;144.38;90.13;;;;;;;;;;5054466;28;20013;-42
2021/07/05 06:42:37;;;;;;;237.77;153.45;;;;;;;;;;5054739;28;20096;-43
2021/07/05 06:45:06;;;;;;;297.83;219.68;;;;;;;;;;5054507;28;20025;-42
2021/07/05 06:47:32;;;;;;;88.88;60.60;;;;;;;;;;5052912;28;20037;-41
2021/07/05 06:49:58;;;;;;;86.57;57.38;;;;;;;;;;5054450;28;20039;-42
2021/07/05 06:52:24;;;;;;;20.60;12.57;;;;;;;;;;5053935;28;20028;-42
2021/07/05 06:54:50;;;;;;;14.93;10.60;;;;;;;;;;5053232;28;20032;-42
2021/07/05 06:57:35;;;;;;;16.05;10.93;;;;;;;;;;5054360;28;20076;-42
2021/07/05 07:00:05;;;;;;;8.18;4.13;;;;;;;;;;5052907;28;20479;-44
2021/07/05 07:02:33;;;;;;;5.03;3.57;;;;;;;;;;5053886;28;20039;-44
2021/07/05 07:04:59;;;;;;;5.97;4.45;;;;;;;;;;5054159;28;20074;-46
2021/07/05 07:07:25;;;;;;;5.47;4.10;;;;;;;;;;5054131;28;20473;-41
2021/07/05 07:09:51;;;;;;;10.07;4.45;;;;;;;;;;5054070;28;20100;-43
2021/07/05 07:12:17;;;;;;;5.97;3.72;;;;;;;;;;5054085;28;20033;-42
2021/07/05 07:14:43;;;;;;;45.75;29.13;;;;;;;;;;5053789;28;20493;-41
2021/07/05 07:17:58;;;;;;;8.13;4.93;;;;;;;;;;5053747;28;20037;-43
2021/07/05 07:19:56;;;;;;;9.82;7.22;;;;;;;;;;5053377;28;20041;-43
2021/07/05 07:22:22;;;;;;;16.95;3.88;;;;;;;;;;5053876;28;20025;-41
2021/07/05 07:24:48;;;;;;;5.63;3.83;;;;;;;;;;5054196;28;20028;-43
2021/07/05 07:27:15;;;;;;;5.88;3.78;;;;;;;;;;5053956;28;20021;-41
2021/07/05 07:29:41;;;;;;;8.00;4.22;;;;;;;;;;5053934;28;20473;-41
2021/07/05 07:32:07;;;;;;;9.30;4.30;;;;;;;;;;5054006;28;20028;-43
2021/07/05 07:34:33;;;;;;;5.68;3.88;;;;;;;;;;5053768;28;20062;-43
2021/07/05 07:37:03;;;;;;;7.28;4.30;;;;;;;;;;5053755;28;20386;-41
2021/07/05 07:39:38;;;;;;;11.18;8.40;;;;;;;;;;5053752;28;20029;-42
2021/07/05 07:42:05;;;;;;;4.60;3.55;;;;;;;;;;5053840;28;20426;-40
2021/07/05 07:44:31;;;;;;;6.35;4.25;;;;;;;;;;5053415;28;20060;-41
2021/07/05 07:46:59;;;;;;;6.30;3.97;;;;;;;;;;5053558;28;20435;-42
2021/07/05 07:49:26;;;;;;;4.38;3.50;;;;;;;;;;5053580;28;20032;-43
2021/07/05 07:51:52;;;;;;;3.97;3.58;;;;;;;;;;5053292;28;20366;-47
2021/07/05 07:54:18;;;;;;;4.15;3.60;;;;;;;;;;5053480;28;20033;-47
2021/07/05 07:56:44;;;;;;;6.32;3.58;;;;;;;;;;5053406;28;20021;-49
2021/07/05 07:59:10;;;;;;;4.57;3.72;;;;;;;;;;5053487;28;20043;-45
2021/07/05 08:01:36;;;;;;;8.77;3.63;;;;;;;;;;5053604;28;20461;-48
2021/07/05 08:04:02;;;;;;;4.25;3.78;;;;;;;;;;5053314;28;20052;-47
2021/07/05 08:06:28;;;;;;;5.85;3.67;;;;;;;;;;5053250;28;20028;-44
2021/07/05 08:08:57;;;;;;;4.90;3.85;;;;;;;;;;5053536;28;20025;-42
2021/07/05 08:11:23;;;;;;;5.40;3.97;;;;;;;;;;5051978;28;20448;-40
2021/07/05 08:13:50;;;;;;;8.10;3.42;;;;;;;;;;5051839;28;20090;-47
2021/07/05 08:16:16;;;;;;;7.18;3.58;;;;;;;;;;5053255;28;20504;-42
2021/07/05 08:18:42;;;;;;;8.35;4.70;;;;;;;;;;5053238;28;20037;-42
2021/07/05 08:21:08;;;;;;;4.88;3.80;;;;;;;;;;5053156;28;20021;-43
2021/07/05 08:23:34;;;;;;;5.22;3.70;;;;;;;;;;5053200;28;20082;-43
2021/07/05 08:26:01;;;;;;;6.93;3.50;;;;;;;;;;5053406;28;20029;-41
2021/07/05 08:28:27;;;;;;;4.22;3.83;;;;;;;;;;5053403;28;20021;-42
2021/07/05 08:30:54;;;;;;;6.40;3.70;;;;;;;;;;5053260;28;20033;-42
2021/07/05 08:33:20;;;;;;;5.15;3.63;;;;;;;;;;5053199;28;20035;-41
2021/07/05 08:35:47;;;;;;;6.47;3.90;;;;;;;;;;5053270;28;20027;-41
2021/07/05 08:38:13;;;;;;;6.53;3.83;;;;;;;;;;5053020;28;20033;-42
2021/07/05 08:40:39;;;;;;;4.60;3.10;;;;;;;;;;5052894;28;20421;-41
2021/07/05 08:43:06;;;;;;;6.18;3.45;;;;;;;;;;5051909;28;20447;-39
2021/07/05 08:45:32;;;;;;;6.93;3.60;;;;;;;;;;5053013;28;20029;-40
2021/07/05 08:47:58;;;;;;;7.65;3.63;;;;;;;;;;5051819;28;20450;-39
2021/07/05 08:50:25;;;;;;;4.85;3.80;;;;;;;;;;5052803;28;20021;-40
2021/07/05 08:52:51;;;;;;;5.45;3.72;;;;;;;;;;5053200;28;20032;-40
2021/07/05 08:55:19;;;;;;;7.57;3.45;;;;;;;;;;5052826;28;20017;-41
2021/07/05 08:57:45;;;;;;;6.75;4.05;;;;;;;;;;5054863;28;20029;-40
2021/07/05 09:00:14;;;;;;;8.98;4.20;;;;;;;;;;5056525;28;20474;-46
2021/07/05 09:02:41;;;;;;;4.70;3.55;;;;;;;;;;5056937;28;20029;-39
2021/07/05 09:05:08;;;;;;;6.53;4.10;;;;;;;;;;5056465;28;20053;-43
2021/07/05 09:07:53;;;;;;;4.32;3.70;;;;;;;;;;5056555;28;20017;-41
2021/07/05 09:10:19;;;;;;;11.48;4.47;;;;;;;;;;5056586;28;20025;-41
2021/07/05 09:12:45;;;;;;;4.20;3.20;;;;;;;;;;5056599;28;20025;-41
2021/07/05 09:15:13;;;;;;;4.25;3.65;;;;;;;;;;5056265;28;20076;-40
2021/07/05 09:17:41;;;;;;;4.32;3.45;;;;;;;;;;5056494;28;20485;-41
2021/07/05 09:20:13;;;;;;;5.80;3.50;;;;;;;;;;5056344;28;20029;-41
2021/07/05 09:22:59;;;;;;;5.40;4.18;;;;;;;;;;5056201;28;20040;-43
2021/07/05 09:25:39;;;;;;;4.25;3.75;;;;;;;;;;5056041;28;20032;-41
2021/07/05 09:28:05;;;;;;;7.20;3.83;;;;;;;;;;5056210;28;20029;-41
2021/07/05 09:30:38;;;;;;;4.72;3.42;;;;;;;;;;5055935;28;20102;-41
2021/07/05 09:33:21;;;;;;;5.53;3.58;;;;;;;;;;5055966;28;20025;-41
2021/07/05 09:35:51;;;;;;;3.83;3.53;;;;;;;;;;5056234;28;20033;-41
2021/07/05 09:38:29;;;;;;;3.67;2.95;;;;;;;;;;5055857;28;20040;-41
2021/07/05 09:40:55;;;;;;;3.75;3.30;;;;;;;;;;5056101;28;20036;-42
2021/07/05 09:43:25;;;;;;;7.55;4.43;;;;;;;;;;5055970;28;20028;-41
2021/07/05 09:45:52;;;;;;;4.75;3.45;;;;;;;;;;5055723;28;20053;-42
2021/07/05 09:48:23;;;;;;;4.97;3.80;;;;;;;;;;5056030;28;20070;-41
2021/07/05 09:51:00;;;;;;;4.85;3.42;;;;;;;;;;5055733;28;20071;-42
2021/07/05 09:53:40;;;;;;;4.85;3.50;;;;;;;;;;5055602;28;20100;-42
2021/07/05 09:56:20;;;;;;;5.30;3.53;;;;;;;;;;5055592;28;20029;-42
2021/07/05 09:58:46;;;;;;;5.63;3.50;;;;;;;;;;5055680;28;20117;-43
2021/07/05 10:01:12;;;;;;;9.38;3.90;;;;;;;;;;5055525;28;20053;-43
2021/07/05 10:03:40;;;;;;;4.57;3.50;;;;;;;;;;5055802;28;20025;-41
2021/07/05 10:06:19;;;;;;;6.22;3.92;;;;;;;;;;5055372;28;20111;-43
2021/07/05 10:08:49;;;;;;;7.65;3.58;;;;;;;;;;5055167;28;20100;-45
2021/07/05 10:11:15;;;;;;;4.07;3.40;;;;;;;;;;5055397;28;20021;-45
2021/07/05 10:13:42;;;;;;;3.78;3.20;;;;;;;;;;5055406;28;20143;-46
2021/07/05 10:16:13;;;;;;;5.47;3.38;;;;;;;;;;5055474;28;20390;-44
2021/07/05 10:18:40;;;;;;;7.78;3.38;;;;;;;;;;5055081;28;20116;-42
2021/07/05 10:21:07;;;;;;;4.47;3.25;;;;;;;;;;5055068;28;20028;-46
2021/07/05 10:23:35;;;;;;;5.28;3.55;;;;;;;;;;5055338;28;20029;-41
2021/07/05 10:26:01;;;;;;;3.80;3.35;;;;;;;;;;5055219;28;20021;-41
2021/07/05 10:28:27;;;;;;;3.78;3.38;;;;;;;;;;5055105;28;20043;-44
2021/07/05 10:30:53;;;;;;;5.55;3.63;;;;;;;;;;5054918;28;20116;-41
2021/07/05 10:33:21;;;;;;;5.18;3.63;;;;;;;;;;5054816;28;20389;-45
2021/07/05 10:35:47;;;;;;;5.95;3.83;;;;;;;;;;5054947;28;20078;-42
2021/07/05 10:38:15;;;;;;;9.27;3.65;;;;;;;;;;5054934;28;20033;-42
2021/07/05 10:40:41;;;;;;;5.15;3.70;;;;;;;;;;5054817;28;20033;-41
2021/07/05 10:43:08;;;;;;;5.35;3.17;;;;;;;;;;5055116;28;20036;-41
2021/07/05 10:45:40;;;;;;;5.03;3.17;;;;;;;;;;5054796;28;20029;-44
2021/07/05 10:48:07;;;;;;;7.25;4.10;;;;;;;;;;5054579;28;20218;-43
2021/07/05 10:50:38;;;;;;;3.50;3.13;;;;;;;;;;5054964;28;20481;-41
2021/07/05 10:53:04;;;;;;;;;;;;;;;;;;5055212;28;20385;-41
2021/07/05 10:55:50;;;;;;;6.25;3.55;;;;;;;;;;5054891;28;19905;-44
2021/07/05 10:58:26;;;;;;;3.90;3.42;;;;;;;;;;5054247;28;20040;-43
2021/07/05 11:00:53;;;;;;;7.25;3.70;;;;;;;;;;5054288;28;20465;-44
2021/07/05 11:03:40;;;;;;;13.25;4.18;;;;;;;;;;5054568;28;20025;-41
2021/07/05 11:06:10;;;;;;;5.72;3.95;;;;;;;;;;5054248;28;20025;-40
2021/07/05 11:08:42;;;;;;;5.20;3.65;;;;;;;;;;5054229;28;20017;-40
2021/07/05 11:11:11;;;;;;;7.50;3.42;;;;;;;;;;5054039;28;20021;-41
2021/07/05 11:13:38;;;;;;;11.30;3.78;;;;;;;;;;5054320;28;20111;-41
2021/07/05 11:16:04;;;;;;;10.43;4.00;;;;;;;;;;5054082;28;20029;-40
2021/07/05 11:18:39;;;;;;;6.05;3.97;;;;;;;;;;5054018;28;20387;-41
2021/07/05 11:21:09;;;;;;;4.25;3.72;;;;;;;;;;5053823;28;20509;-42
2021/07/05 11:24:03;;;;;;;8.25;4.10;;;;;;;;;;5053892;28;20032;-43
2021/07/05 11:26:37;;;;;;;5.93;4.13;;;;;;;;;;5053945;28;20487;-43
2021/07/05 11:29:23;;;;;;;6.95;3.72;;;;;;;;;;5053925;28;20017;-41
2021/07/05 11:31:53;;;;;;;7.20;4.05;;;;;;;;;;5053907;28;20032;-46
2021/07/05 11:34:32;;;;;;;5.70;3.83;;;;;;;;;;5054020;28;20092;-41
2021/07/05 11:37:13;;;;;;;7.20;4.53;;;;;;;;;;5053777;28;20021;-45
2021/07/05 11:39:44;;;;;;;6.32;4.00;;;;;;;;;;5053755;28;20033;-41
2021/07/05 11:42:11;;;;;;;6.05;4.57;;;;;;;;;;5053975;28;20043;-45
2021/07/05 11:44:52;;;;;;;4.85;4.10;;;;;;;;;;5053502;28;20017;-44
2021/07/05 11:47:36;;;;;;;6.30;3.78;;;;;;;;;;5053528;28;20033;-41
2021/07/05 11:50:14;;;;;;;4.60;3.97;;;;;;;;;;5053709;28;20028;-41
2021/07/05 11:53:00;;;;;;;8.88;4.07;;;;;;;;;;5053658;28;20481;-45
2021/07/05 11:55:31;;;;;;;6.30;3.85;;;;;;;;;;5053636;28;20032;-44
2021/07/05 11:57:58;;;;;;;4.10;3.70;;;;;;;;;;5053513;28;20124;-42
2021/07/05 12:00:34;;;;;;;5.18;3.53;;;;;;;;;;5053333;28;20029;-41
2021/07/05 12:03:08;;;;;;;8.82;3.30;;;;;;;;;;5053359;28;20039;-41
2021/07/05 12:05:35;;;;;;;8.13;3.47;;;;;;;;;;5053327;28;20021;-41
2021/07/05 12:08:08;;;;;;;5.05;3.47;;;;;;;;;;5053345;28;20400;-41
2021/07/05 12:10:35;;;;;;;4.60;3.63;;;;;;;;;;5053196;28;20029;-42
2021/07/05 12:13:12;;;;;;;9.10;4.72;;;;;;;;;;5053296;28;20033;-45
2021/07/05 12:15:38;;;;;;;6.75;3.90;;;;;;;;;;5053081;28;20076;-41
2021/07/05 12:18:04;;;;;;;6.88;4.10;;;;;;;;;;5053227;28;20546;-41
2021/07/05 12:20:31;;;;;;;5.38;3.60;;;;;;;;;;5053087;28;20029;-42
2021/07/05 12:22:57;;;;;;;7.63;3.65;;;;;;;;;;5053309;28;20022;-42
2021/07/05 12:25:25;;;;;;;4.90;3.88;;;;;;;;;;5053136;28;20053;-42
2021/07/05 12:27:51;;;;;;;5.63;3.70;;;;;;;;;;5053540;28;20037;-40
2021/07/05 12:30:23;;;;;;;5.32;3.90;;;;;;;;;;5053097;28;20378;-41
2021/07/05 12:32:49;;;;;;;8.27;6.20;;;;;;;;;;5057056;28;20033;-41
2021/07/05 12:35:15;;;;;;;6.53;4.05;;;;;;;;;;5057099;28;20032;-41
2021/07/05 12:37:41;;;;;;;4.30;3.90;;;;;;;;;;5056911;28;20037;-40
2021/07/05 12:40:08;;;;;;;6.32;4.00;;;;;;;;;;5057493;28;20043;-40
2021/07/05 12:42:35;;;;;;;4.85;3.70;;;;;;;;;;5056782;28;20055;-41
2021/07/05 12:45:04;;;;;;;7.43;3.92;;;;;;;;;;5056874;28;20513;-40
2021/07/05 12:47:30;;;;;;;11.48;3.92;;;;;;;;;;5056852;28;20495;-40
2021/07/05 12:49:58;;;;;;;8.23;3.70;;;;;;;;;;5056715;28;20033;-41
2021/07/05 12:52:25;;;;;;;8.63;4.22;;;;;;;;;;5056881;28;20028;-43
2021/07/05 12:55:11;;;;;;;5.20;4.43;;;;;;;;;;5056639;28;20036;-44
2021/07/05 12:57:47;;;;;;;7.88;4.82;;;;;;;;;;5056576;28;20132;-43
2021/07/05 13:00:13;;;;;;;5.50;4.20;;;;;;;;;;5056859;28;20428;-40
2021/07/05 13:02:39;;;;;;;5.68;4.35;;;;;;;;;;5056528;28;20103;-46
2021/07/05 13:05:09;;;;;;;5.70;4.75;;;;;;;;;;5056550;28;20029;-41
2021/07/05 13:07:35;;;;;;;4.40;3.80;;;;;;;;;;5056487;28;20381;-40
2021/07/05 13:10:04;;;;;;;8.60;4.43;;;;;;;;;;5056370;28;20020;-44
2021/07/05 13:12:30;;;;;;;8.35;4.45;;;;;;;;;;5056338;28;20025;-41
2021/07/05 13:15:11;;;;;;;6.65;4.47;;;;;;;;;;5056218;28;20143;-40
2021/07/05 13:17:38;;;;;;;6.63;4.50;;;;;;;;;;5056765;28;20045;-40
2021/07/05 13:20:15;;;;;;;6.35;4.45;;;;;;;;;;5056214;28;20057;-41
2021/07/05 13:22:57;;;;;;;4.78;3.78;;;;;;;;;;5056196;28;20029;-41
2021/07/05 13:25:24;;;;;;;7.38;4.13;;;;;;;;;;5056238;28;20376;-40
2021/07/05 13:27:51;;;;;;;7.07;4.22;;;;;;;;;;5056348;28;20108;-41
2021/07/05 13:30:19;;;;;;;4.88;3.88;;;;;;;;;;5056250;28;20500;-41
2021/07/05 13:32:51;;;;;;;5.63;4.45;;;;;;;;;;5056187;28;20033;-41
2021/07/05 13:35:17;;;;;;;9.10;4.70;;;;;;;;;;5056062;28;20021;-41
2021/07/05 13:37:49;;;;;;;5.43;4.35;;;;;;;;;;5055990;28;20028;-44
2021/07/05 13:40:18;;;;;;;10.68;4.30;;;;;;;;;;5056388;28;20056;-41
2021/07/05 13:42:45;;;;;;;8.35;5.22;;;;;;;;;;5055153;28;20105;-40
2021/07/05 13:45:23;;;;;;;9.15;4.82;;;;;;;;;;5055838;28;20029;-41
2021/07/05 13:47:49;;;;;;;6.07;4.45;;;;;;;;;;5056044;28;20422;-41
2021/07/05 13:50:19;;;;;;;8.40;4.45;;;;;;;;;;5055755;28;20028;-40
2021/07/05 13:52:51;;;;;;;5.83;4.50;;;;;;;;;;5055497;28;20104;-40
2021/07/05 13:55:31;;;;;;;8.13;4.78;;;;;;;;;;5055814;28;20017;-40
2021/07/05 13:58:02;;;;;;;5.15;3.85;;;;;;;;;;5055484;28;20033;-40
2021/07/05 14:00:29;;;;;;;9.32;4.32;;;;;;;;;;5055798;28;20030;-41
2021/07/05 14:02:55;;;;;;;7.25;5.00;;;;;;;;;;5055386;28;20057;-43
2021/07/05 14:05:27;;;;;;;7.70;4.65;;;;;;;;;;5055418;28;20101;-41
2021/07/05 14:07:54;;;;;;;6.35;4.25;;;;;;;;;;5055593;28;20380;-41
2021/07/05 14:10:20;;;;;;;5.07;4.20;;;;;;;;;;5055345;28;20021;-40
2021/07/05 14:12:46;;;;;;;5.82;4.32;;;;;;;;;;5055191;28;20060;-41
2021/07/05 14:15:12;;;;;;;6.85;4.18;;;;;;;;;;5055434;28;20049;-42
2021/07/05 14:17:39;;;;;;;4.63;4.05;;;;;;;;;;5055131;28;20452;-41
2021/07/05 14:20:06;;;;;;;7.43;4.18;;;;;;;;;;5055165;28;20057;-42
2021/07/05 14:22:32;;;;;;;5.82;4.05;;;;;;;;;;5055051;28;20029;-41
2021/07/05 14:24:58;;;;;;;7.18;4.75;;;;;;;;;;5055327;28;20017;-47
2021/07/05 14:27:25;;;;;;;5.18;4.45;;;;;;;;;;5055010;28;20021;-47
2021/07/05 14:29:51;;;;;;;5.68;4.50;;;;;;;;;;5055058;28;20021;-41
2021/07/05 14:32:17;;;;;;;6.80;4.05;;;;;;;;;;5055091;28;20397;-47
2021/07/05 14:34:43;;;;;;;5.18;4.38;;;;;;;;;;5054827;28;20052;-41
2021/07/05 14:37:09;;;;;;;4.45;4.05;;;;;;;;;;5054685;28;20025;-47
2021/07/05 14:39:35;;;;;;;10.60;5.25;;;;;;;;;;5055005;28;20039;-41
2021/07/05 14:42:01;;;;;;;9.30;4.25;;;;;;;;;;5054764;28;20036;-41